Time;durP1;ratioP1;P1;durP2;ratioP2;P2;SDS_P1;SDS_P2;PMS_P1;PMS_P2;Temp;Humidity;BMP_temperature;BMP_pressure;BME280_temperature;BME280_humidity;BME280_pressure;Samples;Min_cycle;Max_cycle;Signal;HPM_P1;HPM_P2
2023/07/08 00:00:57;;;;;;;22.90;16.85;;;;;;;27.47;100.00;97718.38;5030840;28;20049;-63
2023/07/08 00:03:27;;;;;;;22.48;15.75;;;;;;;27.44;100.00;97719.81;5021209;28;20140;-63
2023/07/08 00:05:57;;;;;;;21.17;15.40;;;;;;;27.41;100.00;97723.19;5033203;28;20100;-64
2023/07/08 00:08:26;;;;;;;23.83;16.38;;;;;;;27.40;100.00;97721.59;5017088;28;20064;-64
2023/07/08 00:10:56;;;;;;;23.45;15.65;;;;;;;27.42;100.00;97718.56;5014194;28;20059;-64
2023/07/08 00:13:26;;;;;;;24.83;16.08;;;;;;;27.36;100.00;97722.56;5016246;28;20799;-64
2023/07/08 00:15:56;;;;;;;17.75;12.75;;;;;;;26.83;100.00;97740.09;5031757;28;20052;-64
2023/07/08 00:18:25;;;;;;;10.95;7.43;;;;;;;26.34;100.00;97750.31;5011190;28;20479;-64
2023/07/08 00:20:54;;;;;;;12.05;6.43;;;;;;;26.00;100.00;97744.00;4988533;28;20073;-64
2023/07/08 00:23:24;;;;;;;13.35;4.97;;;;;;;25.82;100.00;97749.38;5007040;28;20461;-64
2023/07/08 00:25:54;;;;;;;13.02;4.82;;;;;;;25.82;100.00;97743.16;5004230;28;20107;-64
2023/07/08 00:28:24;;;;;;;13.30;4.75;;;;;;;25.81;100.00;97742.34;5010845;28;20064;-64
2023/07/08 00:30:55;;;;;;;7.25;4.10;;;;;;;25.63;100.00;97742.59;5011544;28;20057;-64
2023/07/08 00:33:25;;;;;;;4.88;4.00;;;;;;;25.59;100.00;97728.06;5032011;28;20052;-64
2023/07/08 00:35:55;;;;;;;5.07;4.05;;;;;;;25.63;100.00;97745.31;5033403;28;20050;-64
2023/07/08 00:38:26;;;;;;;7.00;3.60;;;;;;;25.60;100.00;97765.75;5016319;28;20046;-63
2023/07/08 00:41:01;;;;;;;4.43;3.65;;;;;;;25.50;100.00;97782.25;5012810;28;20464;-65
2023/07/08 00:43:36;;;;;;;5.25;3.60;;;;;;;25.45;100.00;97785.09;5017049;28;20059;-65
2023/07/08 00:46:27;;;;;;;6.72;3.80;;;;;;;25.55;100.00;97757.72;5009502;28;20404;-65
2023/07/08 00:49:35;;;;;;;5.22;3.67;;;;;;;25.65;100.00;97733.06;5017707;28;20045;-65
2023/07/08 00:52:22;;;;;;;5.70;3.97;;;;;;;25.67;100.00;97705.63;4980820;28;20045;-65
2023/07/08 00:55:06;;;;;;;7.25;4.43;;;;;;;25.60;100.00;97707.97;5011492;28;20072;-65
2023/07/08 00:57:40;;;;;;;9.02;4.45;;;;;;;25.53;100.00;97719.28;5012322;28;20057;-65
2023/07/08 01:00:16;;;;;;;6.60;3.63;;;;;;;25.56;100.00;97728.72;5015490;28;20084;-66
2023/07/08 01:02:50;;;;;;;7.47;4.00;;;;;;;25.63;100.00;97729.03;5015165;28;20084;-66
2023/07/08 01:05:28;;;;;;;5.47;3.55;;;;;;;25.68;100.00;97734.31;5015725;28;20489;-65
2023/07/08 01:08:02;;;;;;;6.03;4.05;;;;;;;25.58;100.00;97738.13;5027607;28;20040;-65
2023/07/08 01:10:55;;;;;;;4.10;3.55;;;;;;;25.32;100.00;97746.09;5015047;28;20141;-65
2023/07/08 01:13:33;;;;;;;6.35;3.70;;;;;;;25.45;100.00;97747.13;5009460;28;20115;-65
2023/07/08 01:16:05;;;;;;;4.93;3.58;;;;;;;25.38;100.00;97741.34;5020068;28;20099;-65
2023/07/08 01:18:35;;;;;;;5.43;3.78;;;;;;;25.26;100.00;97735.72;5008759;28;20520;-65
2023/07/08 01:21:27;;;;;;;4.78;3.75;;;;;;;25.43;100.00;97752.06;5013161;28;20055;-65
2023/07/08 01:23:57;;;;;;;4.97;3.75;;;;;;;25.44;100.00;97767.25;5014432;28;20084;-65
2023/07/08 01:26:29;;;;;;;4.55;3.55;;;;;;;25.52;100.00;97773.81;5014234;28;20045;-66
2023/07/08 01:28:59;;;;;;;6.25;4.47;;;;;;;25.44;100.00;97778.09;5027766;28;20136;-65
2023/07/08 01:31:29;;;;;;;11.13;4.00;;;;;;;25.41;100.00;97790.34;5013015;28;20041;-65
2023/07/08 01:33:59;;;;;;;7.82;4.30;;;;;;;25.30;100.00;97812.59;5016049;28;20728;-65
2023/07/08 01:36:37;;;;;;;8.00;4.18;;;;;;;25.32;100.00;97832.84;5033837;28;20132;-65
2023/07/08 01:39:10;;;;;;;6.72;3.58;;;;;;;25.27;100.00;97838.41;5027802;28;20125;-65
2023/07/08 01:41:40;;;;;;;4.90;3.20;;;;;;;25.21;100.00;97814.44;5015216;28;20049;-65
2023/07/08 01:44:32;;;;;;;5.88;3.17;;;;;;;25.11;100.00;97815.50;5014878;28;20053;-65
2023/07/08 01:47:15;;;;;;;7.40;2.40;;;;;;;25.08;100.00;97812.59;5010375;28;20061;-66
2023/07/08 01:49:47;;;;;;;2.90;2.03;;;;;;;24.99;100.00;97809.84;5008906;28;20053;-65
2023/07/08 01:52:18;;;;;;;2.83;2.15;;;;;;;25.03;100.00;97797.28;5007732;28;20042;-66
2023/07/08 01:54:55;;;;;;;3.17;2.03;;;;;;;24.72;100.00;97788.22;5016318;28;20045;-64
2023/07/08 01:57:25;;;;;;;4.47;2.20;;;;;;;24.76;100.00;97794.63;5016332;28;20049;-66
2023/07/08 01:59:54;;;;;;;2.67;2.25;;;;;;;24.76;100.00;97792.72;5017167;28;20301;-65
2023/07/08 02:02:24;;;;;;;3.92;2.15;;;;;;;24.67;100.00;97812.72;5006737;28;20111;-65
2023/07/08 02:04:55;;;;;;;2.95;2.00;;;;;;;24.48;100.00;97824.50;5011417;28;20153;-65
2023/07/08 02:07:24;;;;;;;4.50;2.47;;;;;;;24.42;100.00;97841.16;5003376;28;20689;-65
2023/07/08 02:09:54;;;;;;;2.67;1.85;;;;;;;24.20;100.00;97841.06;4988790;28;20076;-65
2023/07/08 02:12:23;;;;;;;3.53;1.80;;;;;;;24.05;100.00;97839.44;5014722;28;20048;-65
2023/07/08 02:16:18;;;;;;;5.43;1.90;;;;;;;24.21;100.00;97845.41;4932987;27;2864347;-64
2023/07/08 02:18:47;;;;;;;2.97;1.55;;;;;;;24.24;100.00;97845.59;4967519;28;20046;-64
2023/07/08 02:21:17;;;;;;;2.78;2.20;;;;;;;24.30;100.00;97841.66;4965166;28;20120;-64
2023/07/08 02:23:52;;;;;;;2.55;2.00;;;;;;;24.26;100.00;97837.94;4982295;28;20057;-64
2023/07/08 02:26:21;;;;;;;4.47;2.50;;;;;;;24.47;100.00;97835.63;4981842;28;20125;-65
2023/07/08 02:28:50;;;;;;;3.60;2.60;;;;;;;24.27;100.00;97838.75;4982492;28;20378;-65
2023/07/08 02:31:24;;;;;;;5.45;2.75;;;;;;;24.28;100.00;97829.53;4982012;28;20047;-65
2023/07/08 02:33:54;;;;;;;4.72;3.63;;;;;;;24.39;100.00;97825.50;4967049;28;20145;-65
2023/07/08 02:36:24;;;;;;;4.28;3.10;;;;;;;24.56;100.00;97812.94;4981946;28;20051;-65
2023/07/08 02:38:53;;;;;;;5.72;3.90;;;;;;;24.58;100.00;97802.63;4982021;28;20494;-65
2023/07/08 02:41:22;;;;;;;4.70;3.55;;;;;;;24.61;100.00;97802.00;4981602;28;20062;-65
2023/07/08 02:43:52;;;;;;;5.13;3.47;;;;;;;24.72;100.00;97807.19;4982252;28;20271;-64
2023/07/08 02:46:21;;;;;;;5.93;3.33;;;;;;;24.77;100.00;97802.47;4977656;28;20062;-64
2023/07/08 02:48:51;;;;;;;4.38;3.50;;;;;;;24.75;100.00;97803.84;4997553;28;20046;-64
2023/07/08 02:51:20;;;;;;;6.18;4.00;;;;;;;24.74;100.00;97815.81;4980994;28;20054;-64
2023/07/08 02:53:50;;;;;;;5.55;3.80;;;;;;;24.70;100.00;97825.63;4993554;28;20486;-64
2023/07/08 02:56:22;;;;;;;6.35;3.45;;;;;;;24.76;100.00;97830.66;4996220;28;20768;-64
2023/07/08 02:58:52;;;;;;;3.53;3.22;;;;;;;24.85;100.00;97836.94;5001447;28;20421;-64
2023/07/08 03:01:23;;;;;;;3.67;3.17;;;;;;;24.85;100.00;97849.69;4977547;28;20442;-64
2023/07/08 03:04:00;;;;;;;5.43;3.95;;;;;;;24.97;100.00;97867.03;4996595;28;20081;-65
2023/07/08 03:06:32;;;;;;;4.10;3.63;;;;;;;25.05;100.00;97869.00;4997563;28;20474;-65
2023/07/08 03:09:02;;;;;;;3.97;3.33;;;;;;;25.06;100.00;97877.94;4981669;28;20156;-64
2023/07/08 03:11:32;;;;;;;5.60;3.70;;;;;;;25.07;100.00;97890.38;4997942;28;20603;-65
2023/07/08 03:14:02;;;;;;;5.75;3.75;;;;;;;25.11;100.00;97893.28;4990502;28;20054;-67
2023/07/08 03:16:32;;;;;;;5.47;4.13;;;;;;;25.17;100.00;97898.28;4999842;28;20050;-65
2023/07/08 03:19:04;;;;;;;4.63;3.72;;;;;;;25.16;100.00;97901.28;4999549;28;20108;-65
2023/07/08 03:21:34;;;;;;;4.00;3.38;;;;;;;25.16;100.00;97890.47;5001196;28;20042;-64
2023/07/08 03:24:03;;;;;;;4.43;3.75;;;;;;;25.29;100.00;97890.41;4997374;28;20417;-64
2023/07/08 03:26:34;;;;;;;4.50;3.70;;;;;;;25.30;100.00;97875.75;4976990;28;20068;-65
2023/07/08 03:29:04;;;;;;;4.57;3.25;;;;;;;25.28;100.00;97874.44;4985218;28;20050;-64
2023/07/08 03:31:34;;;;;;;4.25;3.75;;;;;;;25.32;100.00;97865.38;4988940;28;20153;-64
2023/07/08 03:34:04;;;;;;;5.35;3.88;;;;;;;25.33;100.00;97867.00;4986766;28;20557;-65
2023/07/08 03:36:34;;;;;;;5.43;3.90;;;;;;;25.15;100.00;97870.69;4987715;28;20054;-64
2023/07/08 03:39:03;;;;;;;4.93;4.05;;;;;;;25.28;100.00;97856.25;4983271;28;20050;-64
2023/07/08 03:41:32;;;;;;;6.07;4.43;;;;;;;25.29;100.00;97840.81;4986995;28;20498;-64
2023/07/08 03:44:02;;;;;;;5.10;4.10;;;;;;;25.28;100.00;97831.06;4977780;28;20058;-64
2023/07/08 03:46:31;;;;;;;5.93;4.40;;;;;;;25.37;100.00;97830.03;4987809;28;20046;-64
2023/07/08 03:49:02;;;;;;;5.60;4.28;;;;;;;25.43;100.00;97822.56;4986061;28;20070;-65
2023/07/08 03:51:37;;;;;;;5.72;4.25;;;;;;;25.36;100.00;97824.91;4986859;28;20038;-64
2023/07/08 03:54:11;;;;;;;4.97;4.38;;;;;;;25.39;100.00;97806.13;4988026;28;20065;-65
2023/07/08 03:56:41;;;;;;;4.93;4.10;;;;;;;25.46;100.00;97813.81;4983805;28;20050;-64
2023/07/08 03:59:11;;;;;;;7.32;5.03;;;;;;;25.49;100.00;97807.78;4978732;28;20437;-65
2023/07/08 04:01:41;;;;;;;4.85;4.07;;;;;;;25.42;100.00;97810.13;4985173;28;20798;-65
2023/07/08 04:04:14;;;;;;;6.25;4.47;;;;;;;25.41;100.00;97803.88;4970625;28;20080;-65
2023/07/08 04:06:45;;;;;;;6.88;4.90;;;;;;;25.50;100.00;97823.72;4987045;28;20057;-62
2023/07/08 04:09:15;;;;;;;5.80;5.00;;;;;;;25.56;100.00;97821.72;4986963;28;20434;-65
2023/07/08 04:11:45;;;;;;;6.35;4.72;;;;;;;25.58;100.00;97830.31;4986951;28;20127;-64
2023/07/08 04:14:15;;;;;;;5.82;4.93;;;;;;;25.62;100.00;97820.47;4987186;28;20046;-64
2023/07/08 04:16:57;;;;;;;6.80;5.28;;;;;;;25.60;100.00;97816.47;4998744;28;20050;-65
2023/07/08 04:19:27;;;;;;;5.25;4.55;;;;;;;25.67;100.00;97820.31;4969354;28;20120;-65
2023/07/08 04:21:57;;;;;;;8.05;5.35;;;;;;;25.43;100.00;97820.66;5007690;28;20073;-65
2023/07/08 04:24:26;;;;;;;6.97;5.53;;;;;;;25.58;100.00;97818.69;4988377;28;20042;-65
2023/07/08 04:26:56;;;;;;;7.35;5.18;;;;;;;25.70;100.00;97827.06;5007484;28;20045;-65
2023/07/08 04:29:25;;;;;;;6.60;5.25;;;;;;;25.81;100.00;97822.94;4989759;28;20050;-64
2023/07/08 04:31:55;;;;;;;8.15;5.45;;;;;;;25.85;100.00;97808.44;5007143;28;20541;-65
2023/07/08 04:34:24;;;;;;;5.72;5.18;;;;;;;25.96;100.00;97817.09;5005651;28;20094;-66
2023/07/08 04:36:53;;;;;;;7.65;5.50;;;;;;;25.97;100.00;97807.88;5006768;28;20132;-65
2023/07/08 04:39:23;;;;;;;8.73;6.60;;;;;;;25.92;100.00;97803.38;4987073;28;20096;-65
2023/07/08 04:41:52;;;;;;;8.90;6.75;;;;;;;25.89;100.00;97803.22;5003801;28;20481;-65
2023/07/08 04:44:22;;;;;;;9.00;7.13;;;;;;;25.85;100.00;97800.28;5004468;28;20137;-65
2023/07/08 04:46:56;;;;;;;8.52;7.43;;;;;;;25.98;100.00;97805.94;4990230;28;20057;-65
2023/07/08 04:49:31;;;;;;;10.48;7.65;;;;;;;26.03;100.00;97800.34;5007337;28;20050;-65
2023/07/08 04:52:02;;;;;;;10.60;7.88;;;;;;;26.00;100.00;97798.28;4994007;28;20054;-68
2023/07/08 04:54:32;;;;;;;9.30;7.85;;;;;;;26.03;100.00;97784.88;5006153;28;20141;-65
2023/07/08 04:57:01;;;;;;;10.80;9.02;;;;;;;26.03;100.00;97795.72;4981004;28;20366;-65
2023/07/08 04:59:34;;;;;;;12.65;9.60;;;;;;;26.03;100.00;97806.59;5006571;28;20301;-65
2023/07/08 05:02:04;;;;;;;13.35;9.30;;;;;;;26.14;100.00;97805.19;5003344;28;21452;-66
2023/07/08 05:04:33;;;;;;;11.27;9.38;;;;;;;26.13;100.00;97811.72;4985136;28;20108;-66
2023/07/08 05:07:03;;;;;;;11.43;9.30;;;;;;;26.20;100.00;97803.94;5003958;28;20073;-65
2023/07/08 05:09:35;;;;;;;11.55;9.90;;;;;;;26.09;100.00;97793.69;5004837;28;20049;-65
2023/07/08 05:12:06;;;;;;;13.32;9.50;;;;;;;26.17;100.00;97790.19;4987000;28;20042;-66
2023/07/08 05:14:35;;;;;;;13.57;10.23;;;;;;;26.10;100.00;97787.94;4988729;28;20074;-66
2023/07/08 05:17:05;;;;;;;11.07;9.05;;;;;;;26.24;100.00;97791.38;4987651;28;20056;-66
2023/07/08 05:19:36;;;;;;;12.75;9.52;;;;;;;26.27;100.00;97795.34;4996566;28;20056;-66
2023/07/08 05:22:06;;;;;;;11.98;10.23;;;;;;;26.28;100.00;97795.06;4970031;28;20046;-67
2023/07/08 05:24:36;;;;;;;11.95;9.32;;;;;;;26.30;100.00;97805.56;4988382;28;20347;-66
2023/07/08 05:27:06;;;;;;;14.35;9.77;;;;;;;26.38;100.00;97813.72;4987377;28;20054;-65
2023/07/08 05:29:36;;;;;;;11.07;8.95;;;;;;;26.49;100.00;97829.75;4972992;28;20144;-65
2023/07/08 05:32:07;;;;;;;10.18;8.60;;;;;;;26.51;100.00;97836.44;5004197;28;20162;-65
2023/07/08 05:34:36;;;;;;;9.52;8.57;;;;;;;26.46;100.00;97847.47;4987900;28;20477;-65
2023/07/08 05:37:06;;;;;;;10.75;7.93;;;;;;;26.44;100.00;97846.19;5003840;28;20614;-66
2023/07/08 05:39:35;;;;;;;7.70;6.88;;;;;;;26.44;100.00;97854.31;5003155;28;20037;-65
2023/07/08 05:42:05;;;;;;;7.65;6.88;;;;;;;26.41;100.00;97863.91;4986313;28;20061;-66
2023/07/08 05:44:35;;;;;;;7.20;6.50;;;;;;;26.46;100.00;97880.06;4986594;28;20041;-66
2023/07/08 05:47:04;;;;;;;8.18;7.30;;;;;;;26.48;100.00;97880.53;4967576;28;20469;-66
2023/07/08 05:49:34;;;;;;;8.43;7.32;;;;;;;26.40;100.00;97883.22;4986741;28;20136;-65
2023/07/08 05:52:10;;;;;;;7.32;6.63;;;;;;;26.36;100.00;97883.88;5003192;28;20074;-67
2023/07/08 05:54:41;;;;;;;7.20;6.40;;;;;;;26.27;100.00;97866.75;4985080;28;20046;-67
2023/07/08 05:57:12;;;;;;;7.97;7.18;;;;;;;26.25;100.00;97874.41;4984109;28;20077;-66
2023/07/08 05:59:45;;;;;;;8.82;6.78;;;;;;;26.27;100.00;97863.22;4988615;28;20041;-67
2023/07/08 06:02:16;;;;;;;7.72;6.82;;;;;;;26.14;100.00;97858.69;5001385;28;20064;-68
2023/07/08 06:04:47;;;;;;;8.50;7.53;;;;;;;26.08;100.00;97841.72;5003568;28;20056;-67
2023/07/08 06:07:16;;;;;;;7.65;6.93;;;;;;;26.14;100.00;97836.97;4968482;28;20420;-66
2023/07/08 06:09:46;;;;;;;7.78;6.78;;;;;;;26.21;100.00;97837.31;4973490;28;20041;-66
2023/07/08 06:12:16;;;;;;;9.38;7.00;;;;;;;26.22;100.00;97838.94;4986987;28;20041;-66
2023/07/08 06:14:45;;;;;;;8.40;7.57;;;;;;;26.20;100.00;97835.72;5003942;28;20144;-66
2023/07/08 06:17:17;;;;;;;9.68;7.38;;;;;;;26.22;100.00;97830.78;5000177;28;20762;-66
2023/07/08 06:19:47;;;;;;;8.23;7.15;;;;;;;26.20;100.00;97836.53;5003682;28;20466;-66
2023/07/08 06:22:18;;;;;;;8.00;7.20;;;;;;;26.18;100.00;97836.03;5003363;28;20046;-67
2023/07/08 06:25:08;;;;;;;8.43;7.53;;;;;;;26.22;100.00;97825.34;4981305;28;20428;-66
2023/07/08 06:27:38;;;;;;;9.48;7.68;;;;;;;26.13;100.00;97821.78;5000718;28;20064;-67
2023/07/08 06:30:09;;;;;;;10.07;8.15;;;;;;;26.09;100.00;97821.63;4986233;28;20135;-65
2023/07/08 06:32:39;;;;;;;10.82;8.52;;;;;;;26.08;100.00;97816.50;4980996;28;20076;-66
2023/07/08 06:35:10;;;;;;;10.60;8.48;;;;;;;26.20;100.00;97811.28;4963719;28;20058;-64
2023/07/08 06:37:39;;;;;;;8.85;7.95;;;;;;;26.28;100.00;97816.78;4995060;28;20065;-66
2023/07/08 06:40:12;;;;;;;9.63;8.63;;;;;;;26.30;100.00;97806.38;5002256;28;20069;-67
2023/07/08 06:42:43;;;;;;;9.65;8.65;;;;;;;26.23;100.00;97805.25;5002656;28;20046;-65
2023/07/08 06:45:20;;;;;;;10.05;9.05;;;;;;;26.15;100.00;97800.56;4982604;28;20046;-65
2023/07/08 06:47:50;;;;;;;10.07;9.07;;;;;;;26.17;100.00;97804.56;4985763;28;20053;-67
2023/07/08 06:50:19;;;;;;;11.35;9.52;;;;;;;26.18;100.00;97805.34;5001522;28;20046;-66
2023/07/08 06:52:48;;;;;;;12.05;10.02;;;;;;;26.05;100.00;97806.28;4985930;28;20046;-64
2023/07/08 06:55:18;;;;;;;12.25;10.02;;;;;;;26.02;100.00;97810.44;4985252;28;20064;-69
2023/07/08 06:57:48;;;;;;;14.48;11.90;;;;;;;26.00;100.00;97803.72;4968050;28;20776;-64
2023/07/08 07:00:18;;;;;;;14.15;11.70;;;;;;;26.08;100.00;97811.88;5003567;28;20058;-65
2023/07/08 07:02:48;;;;;;;17.15;13.52;;;;;;;26.01;100.00;97800.69;5004849;28;20053;-66
2023/07/08 07:05:17;;;;;;;14.10;12.05;;;;;;;25.94;100.00;97803.03;4997465;28;20053;-65
2023/07/08 07:07:52;;;;;;;16.20;12.07;;;;;;;25.97;100.00;97798.91;4987285;28;21881;-67
2023/07/08 07:10:23;;;;;;;17.35;12.25;;;;;;;25.83;100.00;97801.72;5002305;28;20050;-65
2023/07/08 07:12:52;;;;;;;16.02;13.23;;;;;;;25.84;100.00;97803.34;4999604;28;20054;-65
2023/07/08 07:15:22;;;;;;;14.85;11.52;;;;;;;25.89;100.00;97800.50;5006342;28;20049;-67
2023/07/08 07:17:52;;;;;;;15.73;12.30;;;;;;;25.85;100.00;97810.34;4972168;28;20053;-65
2023/07/08 07:20:21;;;;;;;15.23;12.85;;;;;;;25.86;100.00;97815.47;5001730;28;20057;-65
2023/07/08 07:22:51;;;;;;;17.88;13.75;;;;;;;25.88;100.00;97807.84;5002119;28;20048;-65
2023/07/08 07:25:22;;;;;;;19.20;15.02;;;;;;;25.87;100.00;97821.69;5001793;28;20065;-67
2023/07/08 07:27:52;;;;;;;21.00;16.20;;;;;;;25.91;100.00;97822.66;5001554;28;20046;-65
2023/07/08 07:30:22;;;;;;;21.98;16.85;;;;;;;25.95;100.00;97826.34;4984037;28;20536;-66
2023/07/08 07:32:52;;;;;;;23.52;16.98;;;;;;;25.93;100.00;97825.88;4969673;28;20045;-67
2023/07/08 07:35:22;;;;;;;21.70;16.83;;;;;;;25.90;100.00;97827.28;4966745;28;20444;-67
2023/07/08 07:37:52;;;;;;;23.10;18.05;;;;;;;25.92;100.00;97811.50;5002237;28;20096;-66
2023/07/08 07:40:22;;;;;;;25.42;19.70;;;;;;;25.92;100.00;97808.81;4985497;28;20179;-66
2023/07/08 07:42:52;;;;;;;22.67;18.50;;;;;;;25.98;100.00;97806.72;4998068;28;20065;-68
2023/07/08 07:45:22;;;;;;;25.63;20.52;;;;;;;25.99;100.00;97808.34;4992461;28;20054;-64
2023/07/08 07:47:52;;;;;;;23.90;19.27;;;;;;;26.02;100.00;97807.72;4965673;28;20355;-66
2023/07/08 07:50:22;;;;;;;23.33;19.30;;;;;;;26.00;100.00;97806.41;4977158;28;20045;-68
2023/07/08 07:52:52;;;;;;;25.75;19.50;;;;;;;25.97;100.00;97804.34;4983008;28;20050;-66
2023/07/08 07:55:21;;;;;;;26.15;19.55;;;;;;;26.02;100.00;97809.63;5001943;28;20128;-67
2023/07/08 07:57:51;;;;;;;24.45;20.17;;;;;;;26.03;100.00;97812.00;4981912;28;20042;-66
2023/07/08 08:00:20;;;;;;;23.25;19.55;;;;;;;25.83;100.00;97807.16;4969092;28;20057;-65
2023/07/08 08:02:51;;;;;;;22.95;19.05;;;;;;;25.84;100.00;97806.84;4997025;28;20781;-65
2023/07/08 08:05:21;;;;;;;21.98;18.70;;;;;;;25.88;100.00;97804.31;4984717;28;20056;-64
2023/07/08 08:07:50;;;;;;;19.98;17.13;;;;;;;25.94;100.00;97808.47;4979105;28;20060;-64
2023/07/08 08:10:20;;;;;;;23.25;18.13;;;;;;;26.03;100.00;97800.34;4994993;28;20042;-62
2023/07/08 08:12:52;;;;;;;17.63;15.63;;;;;;;25.99;100.00;97802.91;4999953;28;20137;-66
2023/07/08 08:15:23;;;;;;;16.83;15.03;;;;;;;25.90;100.00;97794.72;4986566;28;20153;-67
2023/07/08 08:17:52;;;;;;;16.90;14.70;;;;;;;25.97;100.00;97801.63;4979558;28;20042;-64
2023/07/08 08:20:24;;;;;;;16.10;14.45;;;;;;;26.06;100.00;97800.56;4997004;28;20429;-70
2023/07/08 08:22:55;;;;;;;14.95;13.48;;;;;;;26.09;100.00;97802.63;4995909;28;20054;-71
2023/07/08 08:25:25;;;;;;;15.25;13.75;;;;;;;26.12;100.00;97806.59;4993810;28;20632;-69
2023/07/08 08:27:54;;;;;;;16.02;14.13;;;;;;;26.12;100.00;97798.47;4978578;28;20047;-66
2023/07/08 08:30:24;;;;;;;14.00;12.60;;;;;;;26.25;100.00;97800.28;4997230;28;20053;-69
2023/07/08 08:32:53;;;;;;;12.85;11.65;;;;;;;26.14;100.00;97794.34;4994289;28;20466;-68
2023/07/08 08:35:23;;;;;;;10.77;9.77;;;;;;;26.24;100.00;97796.00;4993694;28;20172;-68
2023/07/08 08:37:53;;;;;;;8.52;7.63;;;;;;;26.26;100.00;97791.03;4987411;28;20136;-69
2023/07/08 08:40:24;;;;;;;6.40;5.80;;;;;;;26.28;100.00;97783.38;4987363;28;20069;-68
2023/07/08 08:42:57;;;;;;;5.30;4.80;;;;;;;26.27;100.00;97782.59;5005026;28;20796;-68
2023/07/08 08:45:30;;;;;;;4.70;3.80;;;;;;;26.32;100.00;97781.63;4985659;28;20049;-68
2023/07/08 08:48:06;;;;;;;5.03;3.53;;;;;;;26.24;100.00;97782.44;4999049;28;20046;-69
2023/07/08 08:50:52;;;;;;;4.75;3.63;;;;;;;26.26;100.00;97777.47;5002311;28;20060;-69
2023/07/08 08:53:24;;;;;;;3.70;3.40;;;;;;;26.28;100.00;97773.31;5004390;28;20091;-69
2023/07/08 08:56:10;;;;;;;3.85;3.42;;;;;;;26.27;100.00;97765.50;5003374;28;20038;-69
2023/07/08 08:59:18;;;;;;;4.50;4.10;;;;;;;26.27;100.00;97769.00;4987170;28;20050;-69
2023/07/08 09:01:49;;;;;;;4.72;4.32;;;;;;;26.29;100.00;97769.47;4970984;28;20061;-69
2023/07/08 09:04:27;;;;;;;5.07;4.68;;;;;;;26.35;100.00;97761.97;4982661;28;20065;-67
2023/07/08 09:07:06;;;;;;;7.10;6.43;;;;;;;26.51;100.00;97754.97;4994393;28;20058;-66
2023/07/08 09:09:46;;;;;;;11.88;8.27;;;;;;;26.75;100.00;97749.06;5000116;28;20568;-64
2023/07/08 09:12:25;;;;;;;9.43;7.88;;;;;;;26.81;100.00;97736.91;4994774;28;20586;-63
2023/07/08 09:15:27;;;;;;;6.57;5.95;;;;;;;26.86;100.00;97744.13;4993559;28;20553;-64
2023/07/08 09:18:15;;;;;;;6.03;5.43;;;;;;;26.82;100.00;97743.94;4984057;28;20065;-64
2023/07/08 09:20:47;;;;;;;4.60;4.07;;;;;;;26.84;100.00;97747.13;4978681;28;20648;-63
2023/07/08 09:23:27;;;;;;;5.07;4.55;;;;;;;26.85;100.00;97742.50;4980832;28;20053;-63
2023/07/08 09:26:07;;;;;;;11.70;8.57;;;;;;;26.98;100.00;97747.00;4994323;28;20108;-62
2023/07/08 09:28:46;;;;;;;11.13;8.23;;;;;;;27.01;100.00;97746.34;4990613;28;20070;-62
2023/07/08 09:31:28;;;;;;;10.88;7.78;;;;;;;26.89;100.00;97744.28;4997585;28;20108;-62
2023/07/08 09:34:17;;;;;;;3.97;3.58;;;;;;;26.94;100.00;97733.25;4974603;28;20046;-63
2023/07/08 09:36:48;;;;;;;2.40;2.20;;;;;;;26.99;100.00;97729.56;4990954;28;20363;-64
2023/07/08 09:39:21;;;;;;;1.58;1.48;;;;;;;26.95;100.00;97734.84;4987079;28;20490;-64
2023/07/08 09:41:51;;;;;;;2.00;1.60;;;;;;;26.86;100.00;97728.63;4977366;28;20049;-63
2023/07/08 09:44:26;;;;;;;2.40;1.75;;;;;;;26.83;100.00;97735.47;4973756;28;21598;-64
2023/07/08 09:46:58;;;;;;;2.78;2.40;;;;;;;26.75;100.00;97735.47;4985653;28;20472;-64
2023/07/08 09:49:37;;;;;;;2.63;2.33;;;;;;;26.70;100.00;97732.91;4989896;28;20056;-63
2023/07/08 09:52:07;;;;;;;1.75;1.20;;;;;;;26.45;100.00;97737.25;4991798;28;20149;-64
2023/07/08 09:54:36;;;;;;;1.80;0.90;;;;;;;26.33;100.00;97737.09;4998981;28;20136;-64
2023/07/08 09:57:17;;;;;;;1.20;1.10;;;;;;;26.11;100.00;97729.03;4998620;28;20116;-63
2023/07/08 09:59:49;;;;;;;2.10;1.38;;;;;;;26.17;100.00;97728.56;4979011;28;20101;-64
2023/07/08 10:02:30;;;;;;;1.83;1.73;;;;;;;26.24;100.00;97728.94;4995305;28;20070;-62
2023/07/08 10:05:24;;;;;;;1.92;1.77;;;;;;;26.22;100.00;97728.44;4998359;28;20466;-65
2023/07/08 10:07:57;;;;;;;1.80;1.70;;;;;;;26.18;100.00;97724.72;4996174;28;20050;-65
2023/07/08 10:10:35;;;;;;;2.53;1.75;;;;;;;26.23;100.00;97727.31;4988974;28;20053;-64
2023/07/08 10:13:27;;;;;;;1.90;1.80;;;;;;;26.24;100.00;97717.28;4971869;28;20125;-63
2023/07/08 10:16:08;;;;;;;2.05;1.90;;;;;;;26.19;100.00;97712.75;4971908;28;20086;-62
2023/07/08 10:18:38;;;;;;;1.70;1.60;;;;;;;26.17;100.00;97714.19;4973751;28;20050;-64
2023/07/08 10:21:13;;;;;;;2.35;1.20;;;;;;;26.08;100.00;97713.38;4970244;28;20129;-64
2023/07/08 10:23:57;;;;;;;2.75;1.13;;;;;;;26.03;100.00;97724.38;4974492;28;20498;-64
2023/07/08 10:26:34;;;;;;;1.38;1.00;;;;;;;26.06;100.00;97729.19;4972088;28;20051;-64
2023/07/08 10:29:34;;;;;;;2.08;1.20;;;;;;;25.79;100.00;97709.34;4983806;28;20050;-64
2023/07/08 10:32:29;;;;;;;1.63;1.30;;;;;;;25.88;100.00;97717.50;4980821;28;20046;-63
2023/07/08 10:35:32;;;;;;;1.08;0.98;;;;;;;25.90;100.00;97718.75;4966650;28;20065;-64
2023/07/08 10:38:43;;;;;;;1.60;1.00;;;;;;;25.92;100.00;97710.31;4989079;28;20745;-65
2023/07/08 10:41:27;;;;;;;1.52;1.30;;;;;;;25.85;100.00;97708.06;4979792;28;20039;-65
2023/07/08 10:44:04;;;;;;;2.38;1.95;;;;;;;25.59;100.00;97706.38;4980402;28;20149;-63
2023/07/08 10:46:54;;;;;;;2.42;1.42;;;;;;;25.79;100.00;97700.41;4981159;28;20049;-65
2023/07/08 10:49:36;;;;;;;3.47;1.70;;;;;;;25.84;100.00;97703.75;4981220;28;20378;-64
2023/07/08 10:52:39;;;;;;;1.60;1.40;;;;;;;25.83;100.00;97694.03;4977831;28;20061;-65
2023/07/08 10:55:24;;;;;;;3.08;1.80;;;;;;;25.90;100.00;97688.91;4985444;28;20137;-65
2023/07/08 10:58:30;;;;;;;1.42;1.33;;;;;;;25.94;100.00;97684.44;4989166;28;20058;-65
2023/07/08 11:01:32;;;;;;;2.08;1.50;;;;;;;25.83;100.00;97680.47;4981152;28;20445;-64
2023/07/08 11:04:04;;;;;;;1.67;1.10;;;;;;;25.89;100.00;97681.88;4954625;28;20452;-66
2023/07/08 11:07:12;;;;;;;1.75;1.15;;;;;;;25.82;100.00;97683.47;4979269;28;20482;-62
2023/07/08 11:10:08;;;;;;;2.58;1.00;;;;;;;25.89;100.00;97675.69;4948566;28;20041;-62
2023/07/08 11:12:46;;;;;;;1.55;1.10;;;;;;;25.98;100.00;97686.56;4951501;28;20047;-63
2023/07/08 11:15:30;;;;;;;1.10;0.90;;;;;;;25.77;100.00;97691.75;4977114;28;20149;-62
2023/07/08 11:18:10;;;;;;;1.25;0.82;;;;;;;25.91;100.00;97687.81;4963628;28;20062;-63
2023/07/08 11:21:36;;;;;;;0.80;0.77;;;;;;;25.88;100.00;97687.66;4981262;28;20194;-64
2023/07/08 11:24:50;;;;;;;1.30;0.77;;;;;;;25.93;100.00;97690.22;4904655;29;20052;-64
2023/07/08 11:27:41;;;;;;;;;;;;;;;25.94;100.00;97681.75;4881178;29;20040;-64
2023/07/08 11:30:12;;;;;;;2.33;0.70;;;;;;;25.85;100.00;97689.06;4982839;28;19972;-63
2023/07/08 11:32:45;;;;;;;1.73;1.08;;;;;;;25.85;100.00;97689.06;4974634;28;20058;-64
2023/07/08 11:35:47;;;;;;;1.55;0.88;;;;;;;26.02;100.00;97690.22;4978049;28;20130;-63
2023/07/08 11:38:20;;;;;;;1.25;0.80;;;;;;;25.99;100.00;97693.56;4962025;28;20165;-63
2023/07/08 11:40:56;;;;;;;0.80;0.80;;;;;;;26.06;100.00;97689.28;4975944;28;20136;-63
2023/07/08 11:43:43;;;;;;;1.13;0.80;;;;;;;26.13;100.00;97681.44;4976180;28;20069;-61
2023/07/08 11:46:34;;;;;;;1.60;1.00;;;;;;;26.08;100.00;97669.94;4979041;28;20491;-66
2023/07/08 11:49:14;;;;;;;1.23;0.95;;;;;;;26.06;100.00;97669.47;4966255;28;20047;-63
2023/07/08 11:51:46;;;;;;;2.72;1.10;;;;;;;26.06;100.00;97673.00;4989574;28;20050;-63
2023/07/08 11:54:35;;;;;;;2.10;1.10;;;;;;;25.97;100.00;97661.34;4980738;28;20478;-65
2023/07/08 11:57:08;;;;;;;1.15;0.95;;;;;;;26.01;100.00;97653.34;4979612;28;20046;-63